sensor_id;sensor_type;location;lat;lon;timestamp;P1;durP1;ratioP1;P2;durP2;ratioP2
75854;SDS011;64502;59.976;30.316;2022-11-11T00:01:02;8.02;;;3.13;;
75854;SDS011;64502;59.976;30.316;2022-11-11T00:03:32;5.70;;;2.05;;
75854;SDS011;64502;59.976;30.316;2022-11-11T00:06:01;7.20;;;2.72;;
75854;SDS011;64502;59.976;30.316;2022-11-11T00:08:28;6.72;;;2.58;;
75854;SDS011;64502;59.976;30.316;2022-11-11T00:10:58;6.63;;;3.13;;
75854;SDS011;64502;59.976;30.316;2022-11-11T00:13:28;8.07;;;3.47;;
75854;SDS011;64502;59.976;30.316;2022-11-11T00:15:55;9.48;;;4.03;;
75854;SDS011;64502;59.976;30.316;2022-11-11T00:18:20;9.63;;;3.65;;
75854;SDS011;64502;59.976;30.316;2022-11-11T00:21:06;10.57;;;4.28;;
75854;SDS011;64502;59.976;30.316;2022-11-11T00:23:55;10.73;;;4.63;;
75854;SDS011;64502;59.976;30.316;2022-11-11T00:26:39;8.18;;;4.68;;
75854;SDS011;64502;59.976;30.316;2022-11-11T00:29:05;8.38;;;3.95;;
75854;SDS011;64502;59.976;30.316;2022-11-11T00:31:30;9.82;;;4.80;;
75854;SDS011;64502;59.976;30.316;2022-11-11T00:33:55;9.88;;;4.25;;
75854;SDS011;64502;59.976;30.316;2022-11-11T00:36:21;8.73;;;4.63;;
75854;SDS011;64502;59.976;30.316;2022-11-11T00:38:46;12.75;;;5.93;;
75854;SDS011;64502;59.976;30.316;2022-11-11T00:41:17;11.65;;;5.18;;
75854;SDS011;64502;59.976;30.316;2022-11-11T00:43:44;11.38;;;5.55;;
75854;SDS011;64502;59.976;30.316;2022-11-11T00:46:11;7.68;;;4.50;;
75854;SDS011;64502;59.976;30.316;2022-11-11T00:48:57;12.23;;;5.35;;
75854;SDS011;64502;59.976;30.316;2022-11-11T00:51:40;13.80;;;5.55;;
75854;SDS011;64502;59.976;30.316;2022-11-11T00:54:06;11.00;;;5.13;;
75854;SDS011;64502;59.976;30.316;2022-11-11T00:56:33;16.85;;;6.82;;
75854;SDS011;64502;59.976;30.316;2022-11-11T00:59:00;14.18;;;5.70;;
75854;SDS011;64502;59.976;30.316;2022-11-11T01:01:26;12.43;;;5.20;;
75854;SDS011;64502;59.976;30.316;2022-11-11T01:03:51;14.40;;;5.82;;
75854;SDS011;64502;59.976;30.316;2022-11-11T01:06:17;9.82;;;4.90;;
75854;SDS011;64502;59.976;30.316;2022-11-11T01:08:43;11.73;;;5.15;;
75854;SDS011;64502;59.976;30.316;2022-11-11T01:11:12;10.23;;;5.05;;
75854;SDS011;64502;59.976;30.316;2022-11-11T01:13:39;13.45;;;5.20;;
75854;SDS011;64502;59.976;30.316;2022-11-11T01:16:05;10.25;;;4.70;;
75854;SDS011;64502;59.976;30.316;2022-11-11T01:18:32;7.60;;;4.32;;
75854;SDS011;64502;59.976;30.316;2022-11-11T01:21:03;9.55;;;3.88;;
75854;SDS011;64502;59.976;30.316;2022-11-11T01:23:30;14.02;;;4.25;;
75854;SDS011;64502;59.976;30.316;2022-11-11T01:26:03;8.85;;;4.57;;
75854;SDS011;64502;59.976;30.316;2022-11-11T01:28:30;10.23;;;4.18;;
75854;SDS011;64502;59.976;30.316;2022-11-11T01:30:59;11.40;;;4.75;;
75854;SDS011;64502;59.976;30.316;2022-11-11T01:33:32;6.72;;;4.63;;
75854;SDS011;64502;59.976;30.316;2022-11-11T01:36:07;10.63;;;4.13;;
75854;SDS011;64502;59.976;30.316;2022-11-11T01:38:38;8.40;;;4.40;;
75854;SDS011;64502;59.976;30.316;2022-11-11T01:41:05;10.80;;;4.38;;
75854;SDS011;64502;59.976;30.316;2022-11-11T01:43:50;9.57;;;4.82;;
75854;SDS011;64502;59.976;30.316;2022-11-11T01:46:20;11.18;;;4.50;;
75854;SDS011;64502;59.976;30.316;2022-11-11T01:48:55;11.02;;;5.05;;
75854;SDS011;64502;59.976;30.316;2022-11-11T01:52:17;11.73;;;4.68;;
75854;SDS011;64502;59.976;30.316;2022-11-11T01:54:49;11.02;;;4.40;;
75854;SDS011;64502;59.976;30.316;2022-11-11T01:57:45;9.57;;;4.68;;
75854;SDS011;64502;59.976;30.316;2022-11-11T02:00:18;9.48;;;4.20;;
75854;SDS011;64502;59.976;30.316;2022-11-11T02:02:48;8.20;;;3.90;;
75854;SDS011;64502;59.976;30.316;2022-11-11T02:05:17;10.27;;;4.68;;
75854;SDS011;64502;59.976;30.316;2022-11-11T02:08:04;11.95;;;5.10;;
75854;SDS011;64502;59.976;30.316;2022-11-11T02:10:35;10.65;;;4.28;;
75854;SDS011;64502;59.976;30.316;2022-11-11T02:13:04;10.43;;;5.10;;
75854;SDS011;64502;59.976;30.316;2022-11-11T02:15:54;9.65;;;4.85;;
75854;SDS011;64502;59.976;30.316;2022-11-11T02:18:20;11.77;;;4.40;;
75854;SDS011;64502;59.976;30.316;2022-11-11T02:20:45;13.77;;;5.07;;
75854;SDS011;64502;59.976;30.316;2022-11-11T02:23:15;11.50;;;5.47;;
75854;SDS011;64502;59.976;30.316;2022-11-11T02:25:55;10.90;;;4.85;;
75854;SDS011;64502;59.976;30.316;2022-11-11T02:28:24;14.18;;;5.03;;
75854;SDS011;64502;59.976;30.316;2022-11-11T02:30:51;9.45;;;4.13;;
75854;SDS011;64502;59.976;30.316;2022-11-11T02:33:17;9.85;;;5.25;;
75854;SDS011;64502;59.976;30.316;2022-11-11T02:35:47;14.05;;;5.13;;
75854;SDS011;64502;59.976;30.316;2022-11-11T02:38:20;13.18;;;4.95;;
75854;SDS011;64502;59.976;30.316;2022-11-11T02:40:47;10.30;;;4.65;;
75854;SDS011;64502;59.976;30.316;2022-11-11T02:43:32;10.93;;;4.68;;
75854;SDS011;64502;59.976;30.316;2022-11-11T02:45:58;12.43;;;5.15;;
75854;SDS011;64502;59.976;30.316;2022-11-11T02:48:25;9.63;;;5.35;;
75854;SDS011;64502;59.976;30.316;2022-11-11T02:50:52;11.00;;;5.00;;
75854;SDS011;64502;59.976;30.316;2022-11-11T02:53:18;10.10;;;5.18;;
75854;SDS011;64502;59.976;30.316;2022-11-11T02:55:45;10.13;;;4.82;;
75854;SDS011;64502;59.976;30.316;2022-11-11T02:58:11;12.27;;;4.70;;
75854;SDS011;64502;59.976;30.316;2022-11-11T03:00:37;9.18;;;4.75;;
75854;SDS011;64502;59.976;30.316;2022-11-11T03:03:03;9.48;;;4.55;;
75854;SDS011;64502;59.976;30.316;2022-11-11T03:05:28;9.70;;;4.22;;
75854;SDS011;64502;59.976;30.316;2022-11-11T03:07:54;11.23;;;4.43;;
75854;SDS011;64502;59.976;30.316;2022-11-11T03:10:19;9.82;;;4.85;;
75854;SDS011;64502;59.976;30.316;2022-11-11T03:12:45;10.90;;;4.93;;
75854;SDS011;64502;59.976;30.316;2022-11-11T03:15:10;8.15;;;4.63;;
75854;SDS011;64502;59.976;30.316;2022-11-11T03:17:36;9.88;;;3.70;;
75854;SDS011;64502;59.976;30.316;2022-11-11T03:23:02;10.55;;;4.53;;
75854;SDS011;64502;59.976;30.316;2022-11-11T03:25:39;8.77;;;5.35;;
75854;SDS011;64502;59.976;30.316;2022-11-11T03:28:07;13.52;;;5.35;;
75854;SDS011;64502;59.976;30.316;2022-11-11T03:30:33;13.00;;;5.38;;
75854;SDS011;64502;59.976;30.316;2022-11-11T03:33:00;13.25;;;5.70;;
75854;SDS011;64502;59.976;30.316;2022-11-11T03:35:26;12.98;;;6.18;;
75854;SDS011;64502;59.976;30.316;2022-11-11T03:37:52;9.90;;;4.25;;
75854;SDS011;64502;59.976;30.316;2022-11-11T03:40:36;12.05;;;5.60;;
75854;SDS011;64502;59.976;30.316;2022-11-11T03:43:02;12.63;;;4.80;;
75854;SDS011;64502;59.976;30.316;2022-11-11T03:45:27;9.27;;;4.72;;
75854;SDS011;64502;59.976;30.316;2022-11-11T03:47:53;10.02;;;5.00;;
75854;SDS011;64502;59.976;30.316;2022-11-11T03:50:19;10.38;;;4.68;;
75854;SDS011;64502;59.976;30.316;2022-11-11T03:52:46;11.10;;;5.05;;
75854;SDS011;64502;59.976;30.316;2022-11-11T03:55:11;9.05;;;4.80;;
75854;SDS011;64502;59.976;30.316;2022-11-11T03:57:40;14.02;;;5.68;;
75854;SDS011;64502;59.976;30.316;2022-11-11T04:00:08;9.13;;;4.75;;
75854;SDS011;64502;59.976;30.316;2022-11-11T04:02:36;11.40;;;4.57;;
75854;SDS011;64502;59.976;30.316;2022-11-11T04:05:20;10.40;;;5.15;;
75854;SDS011;64502;59.976;30.316;2022-11-11T04:08:04;10.50;;;4.75;;
75854;SDS011;64502;59.976;30.316;2022-11-11T04:10:51;11.40;;;4.82;;
75854;SDS011;64502;59.976;30.316;2022-11-11T04:13:17;10.80;;;4.82;;
75854;SDS011;64502;59.976;30.316;2022-11-11T04:16:01;9.45;;;4.35;;
75854;SDS011;64502;59.976;30.316;2022-11-11T04:18:33;10.20;;;4.32;;
75854;SDS011;64502;59.976;30.316;2022-11-11T04:21:18;9.90;;;4.20;;
75854;SDS011;64502;59.976;30.316;2022-11-11T04:24:02;9.38;;;4.80;;
75854;SDS011;64502;59.976;30.316;2022-11-11T04:26:48;7.97;;;5.15;;
75854;SDS011;64502;59.976;30.316;2022-11-11T04:29:14;13.23;;;5.40;;
75854;SDS011;64502;59.976;30.316;2022-11-11T04:32:01;9.80;;;4.15;;
75854;SDS011;64502;59.976;30.316;2022-11-11T04:34:46;10.18;;;4.60;;
75854;SDS011;64502;59.976;30.316;2022-11-11T04:37:13;9.40;;;4.97;;
75854;SDS011;64502;59.976;30.316;2022-11-11T04:39:40;9.43;;;5.38;;
75854;SDS011;64502;59.976;30.316;2022-11-11T04:42:24;15.02;;;4.65;;
75854;SDS011;64502;59.976;30.316;2022-11-11T04:44:50;7.78;;;4.30;;
75854;SDS011;64502;59.976;30.316;2022-11-11T04:47:34;8.68;;;3.67;;
75854;SDS011;64502;59.976;30.316;2022-11-11T04:49:59;14.20;;;5.15;;
75854;SDS011;64502;59.976;30.316;2022-11-11T04:52:25;7.68;;;4.40;;
75854;SDS011;64502;59.976;30.316;2022-11-11T04:54:51;11.23;;;5.50;;
75854;SDS011;64502;59.976;30.316;2022-11-11T04:57:39;9.30;;;5.30;;
75854;SDS011;64502;59.976;30.316;2022-11-11T05:00:09;9.02;;;4.95;;
75854;SDS011;64502;59.976;30.316;2022-11-11T05:02:36;11.25;;;4.32;;
75854;SDS011;64502;59.976;30.316;2022-11-11T05:05:21;12.52;;;5.35;;
75854;SDS011;64502;59.976;30.316;2022-11-11T05:07:47;11.18;;;4.10;;
75854;SDS011;64502;59.976;30.316;2022-11-11T05:10:31;10.05;;;3.95;;
75854;SDS011;64502;59.976;30.316;2022-11-11T05:12:57;9.45;;;3.80;;
75854;SDS011;64502;59.976;30.316;2022-11-11T05:15:42;9.25;;;3.45;;
75854;SDS011;64502;59.976;30.316;2022-11-11T05:18:27;9.40;;;4.40;;
75854;SDS011;64502;59.976;30.316;2022-11-11T05:21:15;10.10;;;3.83;;
75854;SDS011;64502;59.976;30.316;2022-11-11T05:24:00;9.55;;;4.47;;
75854;SDS011;64502;59.976;30.316;2022-11-11T05:26:44;6.45;;;3.22;;
75854;SDS011;64502;59.976;30.316;2022-11-11T05:29:09;7.20;;;3.33;;
75854;SDS011;64502;59.976;30.316;2022-11-11T05:31:35;8.63;;;3.15;;
75854;SDS011;64502;59.976;30.316;2022-11-11T05:34:00;6.97;;;2.15;;
75854;SDS011;64502;59.976;30.316;2022-11-11T05:36:26;4.85;;;2.08;;
75854;SDS011;64502;59.976;30.316;2022-11-11T05:38:51;6.35;;;2.20;;
75854;SDS011;64502;59.976;30.316;2022-11-11T05:41:17;9.30;;;1.95;;
75854;SDS011;64502;59.976;30.316;2022-11-11T05:43:42;4.63;;;1.65;;
75854;SDS011;64502;59.976;30.316;2022-11-11T05:46:08;6.90;;;1.45;;
75854;SDS011;64502;59.976;30.316;2022-11-11T05:48:33;6.00;;;2.55;;
75854;SDS011;64502;59.976;30.316;2022-11-11T05:50:58;5.75;;;2.22;;
75854;SDS011;64502;59.976;30.316;2022-11-11T05:53:24;9.00;;;1.98;;
75854;SDS011;64502;59.976;30.316;2022-11-11T05:55:50;7.13;;;1.98;;
75854;SDS011;64502;59.976;30.316;2022-11-11T05:58:16;5.50;;;1.92;;
75854;SDS011;64502;59.976;30.316;2022-11-11T06:00:42;4.70;;;1.42;;
75854;SDS011;64502;59.976;30.316;2022-11-11T06:03:08;4.32;;;1.70;;
75854;SDS011;64502;59.976;30.316;2022-11-11T06:05:34;4.57;;;1.63;;
75854;SDS011;64502;59.976;30.316;2022-11-11T06:08:00;5.85;;;1.92;;
75854;SDS011;64502;59.976;30.316;2022-11-11T06:10:26;5.63;;;1.60;;
75854;SDS011;64502;59.976;30.316;2022-11-11T06:12:55;8.10;;;1.70;;
75854;SDS011;64502;59.976;30.316;2022-11-11T06:15:29;5.78;;;1.70;;
75854;SDS011;64502;59.976;30.316;2022-11-11T06:17:56;5.07;;;1.60;;
75854;SDS011;64502;59.976;30.316;2022-11-11T06:20:21;8.43;;;1.92;;
75854;SDS011;64502;59.976;30.316;2022-11-11T06:22:47;6.05;;;2.25;;
75854;SDS011;64502;59.976;30.316;2022-11-11T06:25:25;4.55;;;1.90;;
75854;SDS011;64502;59.976;30.316;2022-11-11T06:28:11;6.13;;;1.65;;
75854;SDS011;64502;59.976;30.316;2022-11-11T06:30:37;8.20;;;2.15;;
75854;SDS011;64502;59.976;30.316;2022-11-11T06:33:03;5.43;;;1.85;;
75854;SDS011;64502;59.976;30.316;2022-11-11T06:35:31;6.20;;;1.83;;
75854;SDS011;64502;59.976;30.316;2022-11-11T06:37:58;7.80;;;1.48;;
75854;SDS011;64502;59.976;30.316;2022-11-11T06:40:24;5.32;;;1.48;;
75854;SDS011;64502;59.976;30.316;2022-11-11T06:42:49;5.65;;;1.92;;
75854;SDS011;64502;59.976;30.316;2022-11-11T06:45:15;2.63;;;1.42;;
75854;SDS011;64502;59.976;30.316;2022-11-11T06:47:41;6.57;;;1.60;;
75854;SDS011;64502;59.976;30.316;2022-11-11T06:50:07;6.15;;;1.20;;
75854;SDS011;64502;59.976;30.316;2022-11-11T06:52:32;9.77;;;1.45;;
75854;SDS011;64502;59.976;30.316;2022-11-11T06:54:58;5.88;;;1.20;;
75854;SDS011;64502;59.976;30.316;2022-11-11T06:57:23;5.18;;;0.70;;
75854;SDS011;64502;59.976;30.316;2022-11-11T06:59:49;4.53;;;1.40;;
75854;SDS011;64502;59.976;30.316;2022-11-11T07:02:14;7.53;;;1.10;;
75854;SDS011;64502;59.976;30.316;2022-11-11T07:04:40;5.13;;;0.98;;
75854;SDS011;64502;59.976;30.316;2022-11-11T07:07:05;4.85;;;1.13;;
75854;SDS011;64502;59.976;30.316;2022-11-11T07:09:31;5.20;;;1.00;;
75854;SDS011;64502;59.976;30.316;2022-11-11T07:11:56;5.78;;;0.80;;
75854;SDS011;64502;59.976;30.316;2022-11-11T07:14:22;5.15;;;0.80;;
75854;SDS011;64502;59.976;30.316;2022-11-11T07:16:47;4.78;;;0.85;;
75854;SDS011;64502;59.976;30.316;2022-11-11T07:19:13;5.63;;;0.80;;
75854;SDS011;64502;59.976;30.316;2022-11-11T07:21:38;4.55;;;0.90;;
75854;SDS011;64502;59.976;30.316;2022-11-11T07:24:04;9.15;;;1.30;;
75854;SDS011;64502;59.976;30.316;2022-11-11T07:26:29;6.10;;;1.10;;
75854;SDS011;64502;59.976;30.316;2022-11-11T07:28:55;9.18;;;0.93;;
75854;SDS011;64502;59.976;30.316;2022-11-11T07:31:21;4.35;;;1.00;;
75854;SDS011;64502;59.976;30.316;2022-11-11T07:33:46;7.15;;;0.75;;
75854;SDS011;64502;59.976;30.316;2022-11-11T07:36:12;5.43;;;0.82;;
75854;SDS011;64502;59.976;30.316;2022-11-11T07:38:37;8.77;;;1.92;;
75854;SDS011;64502;59.976;30.316;2022-11-11T07:41:03;4.75;;;1.10;;
75854;SDS011;64502;59.976;30.316;2022-11-11T07:43:29;6.13;;;1.38;;
75854;SDS011;64502;59.976;30.316;2022-11-11T07:45:55;4.72;;;1.10;;
75854;SDS011;64502;59.976;30.316;2022-11-11T07:48:20;7.63;;;1.10;;
75854;SDS011;64502;59.976;30.316;2022-11-11T07:50:46;8.15;;;1.25;;
75854;SDS011;64502;59.976;30.316;2022-11-11T07:53:11;6.38;;;1.40;;
75854;SDS011;64502;59.976;30.316;2022-11-11T07:55:36;5.65;;;1.17;;
75854;SDS011;64502;59.976;30.316;2022-11-11T07:58:02;7.10;;;1.35;;
75854;SDS011;64502;59.976;30.316;2022-11-11T08:00:27;4.55;;;1.00;;
75854;SDS011;64502;59.976;30.316;2022-11-11T08:02:53;5.80;;;1.00;;
75854;SDS011;64502;59.976;30.316;2022-11-11T08:05:18;6.85;;;1.27;;
75854;SDS011;64502;59.976;30.316;2022-11-11T08:07:44;8.40;;;1.65;;
75854;SDS011;64502;59.976;30.316;2022-11-11T08:10:10;9.98;;;1.63;;
75854;SDS011;64502;59.976;30.316;2022-11-11T08:12:36;4.32;;;1.13;;
75854;SDS011;64502;59.976;30.316;2022-11-11T08:15:22;9.40;;;1.50;;
75854;SDS011;64502;59.976;30.316;2022-11-11T08:17:47;7.50;;;1.17;;
75854;SDS011;64502;59.976;30.316;2022-11-11T08:20:13;4.60;;;1.30;;
75854;SDS011;64502;59.976;30.316;2022-11-11T08:22:39;8.70;;;1.15;;
75854;SDS011;64502;59.976;30.316;2022-11-11T08:25:06;7.15;;;1.15;;
75854;SDS011;64502;59.976;30.316;2022-11-11T08:27:34;7.63;;;2.05;;
75854;SDS011;64502;59.976;30.316;2022-11-11T08:30:00;9.65;;;1.63;;
75854;SDS011;64502;59.976;30.316;2022-11-11T08:32:26;5.45;;;0.77;;
75854;SDS011;64502;59.976;30.316;2022-11-11T08:34:51;6.95;;;1.30;;
75854;SDS011;64502;59.976;30.316;2022-11-11T08:37:17;4.90;;;1.05;;
75854;SDS011;64502;59.976;30.316;2022-11-11T08:39:43;6.05;;;1.17;;
75854;SDS011;64502;59.976;30.316;2022-11-11T08:42:08;8.10;;;1.42;;
75854;SDS011;64502;59.976;30.316;2022-11-11T08:44:33;8.02;;;1.05;;
75854;SDS011;64502;59.976;30.316;2022-11-11T08:46:59;4.65;;;1.05;;
75854;SDS011;64502;59.976;30.316;2022-11-11T08:49:24;9.00;;;1.40;;
75854;SDS011;64502;59.976;30.316;2022-11-11T08:51:50;4.90;;;1.10;;
75854;SDS011;64502;59.976;30.316;2022-11-11T08:54:15;7.40;;;1.55;;
75854;SDS011;64502;59.976;30.316;2022-11-11T08:56:42;6.90;;;2.10;;
75854;SDS011;64502;59.976;30.316;2022-11-11T08:59:07;4.57;;;1.40;;
75854;SDS011;64502;59.976;30.316;2022-11-11T09:01:34;6.70;;;1.50;;
75854;SDS011;64502;59.976;30.316;2022-11-11T09:04:00;6.18;;;1.42;;
75854;SDS011;64502;59.976;30.316;2022-11-11T09:06:26;7.60;;;1.73;;
75854;SDS011;64502;59.976;30.316;2022-11-11T09:08:52;7.65;;;1.55;;
75854;SDS011;64502;59.976;30.316;2022-11-11T09:11:18;5.60;;;1.23;;
75854;SDS011;64502;59.976;30.316;2022-11-11T09:13:45;5.43;;;1.50;;
75854;SDS011;64502;59.976;30.316;2022-11-11T09:16:11;7.00;;;1.50;;
75854;SDS011;64502;59.976;30.316;2022-11-11T09:18:36;5.90;;;1.10;;
75854;SDS011;64502;59.976;30.316;2022-11-11T09:21:02;10.43;;;1.60;;
75854;SDS011;64502;59.976;30.316;2022-11-11T09:23:27;7.25;;;1.48;;
75854;SDS011;64502;59.976;30.316;2022-11-11T09:25:53;5.55;;;1.30;;
75854;SDS011;64502;59.976;30.316;2022-11-11T09:28:18;4.28;;;1.33;;
75854;SDS011;64502;59.976;30.316;2022-11-11T09:30:44;7.28;;;1.20;;
75854;SDS011;64502;59.976;30.316;2022-11-11T09:33:09;5.97;;;1.30;;
75854;SDS011;64502;59.976;30.316;2022-11-11T09:35:36;8.55;;;1.40;;
75854;SDS011;64502;59.976;30.316;2022-11-11T09:38:03;7.40;;;1.50;;
75854;SDS011;64502;59.976;30.316;2022-11-11T09:43:13;5.43;;;0.93;;
75854;SDS011;64502;59.976;30.316;2022-11-11T09:46:09;4.85;;;1.30;;
75854;SDS011;64502;59.976;30.316;2022-11-11T09:51:22;4.68;;;1.17;;
75854;SDS011;64502;59.976;30.316;2022-11-11T09:53:53;4.07;;;0.80;;
75854;SDS011;64502;59.976;30.316;2022-11-11T09:56:24;3.78;;;1.02;;
75854;SDS011;64502;59.976;30.316;2022-11-11T09:58:52;3.28;;;1.00;;
75854;SDS011;64502;59.976;30.316;2022-11-11T10:01:42;3.97;;;1.20;;
75854;SDS011;64502;59.976;30.316;2022-11-11T10:07:23;4.72;;;1.10;;
75854;SDS011;64502;59.976;30.316;2022-11-11T10:15:29;5.83;;;1.60;;
75854;SDS011;64502;59.976;30.316;2022-11-11T10:20:47;3.45;;;0.85;;
75854;SDS011;64502;59.976;30.316;2022-11-11T10:23:19;1.95;;;0.55;;
75854;SDS011;64502;59.976;30.316;2022-11-11T10:25:53;2.50;;;0.90;;
75854;SDS011;64502;59.976;30.316;2022-11-11T10:28:20;3.40;;;0.98;;
75854;SDS011;64502;59.976;30.316;2022-11-11T10:30:50;2.42;;;0.68;;
75854;SDS011;64502;59.976;30.316;2022-11-11T10:33:26;4.00;;;0.80;;
75854;SDS011;64502;59.976;30.316;2022-11-11T10:35:58;2.92;;;0.50;;
75854;SDS011;64502;59.976;30.316;2022-11-11T10:38:43;2.72;;;0.70;;
75854;SDS011;64502;59.976;30.316;2022-11-11T10:41:32;3.30;;;1.40;;
75854;SDS011;64502;59.976;30.316;2022-11-11T10:50:05;2.83;;;0.70;;
75854;SDS011;64502;59.976;30.316;2022-11-11T10:52:40;2.17;;;0.47;;
75854;SDS011;64502;59.976;30.316;2022-11-11T10:55:17;4.22;;;1.30;;
75854;SDS011;64502;59.976;30.316;2022-11-11T11:00:19;4.00;;;0.80;;
75854;SDS011;64502;59.976;30.316;2022-11-11T11:05:31;1.92;;;0.75;;
75854;SDS011;64502;59.976;30.316;2022-11-11T11:08:10;3.22;;;1.30;;
75854;SDS011;64502;59.976;30.316;2022-11-11T11:10:46;3.25;;;0.70;;
75854;SDS011;64502;59.976;30.316;2022-11-11T11:13:26;2.80;;;0.55;;
75854;SDS011;64502;59.976;30.316;2022-11-11T11:16:05;2.42;;;0.60;;
75854;SDS011;64502;59.976;30.316;2022-11-11T11:18:36;1.98;;;0.80;;
75854;SDS011;64502;59.976;30.316;2022-11-11T11:21:06;4.45;;;0.60;;
75854;SDS011;64502;59.976;30.316;2022-11-11T11:23:36;3.05;;;0.70;;
75854;SDS011;64502;59.976;30.316;2022-11-11T11:26:02;3.95;;;1.00;;
75854;SDS011;64502;59.976;30.316;2022-11-11T11:28:28;1.75;;;0.57;;
75854;SDS011;64502;59.976;30.316;2022-11-11T11:30:58;2.15;;;0.63;;
75854;SDS011;64502;59.976;30.316;2022-11-11T11:33:30;3.53;;;1.88;;
75854;SDS011;64502;59.976;30.316;2022-11-11T11:36:19;4.18;;;0.77;;
75854;SDS011;64502;59.976;30.316;2022-11-11T11:38:46;3.45;;;1.35;;
75854;SDS011;64502;59.976;30.316;2022-11-11T11:41:27;6.38;;;1.00;;
75854;SDS011;64502;59.976;30.316;2022-11-11T11:44:25;5.35;;;1.05;;
75854;SDS011;64502;59.976;30.316;2022-11-11T11:53:15;2.05;;;0.90;;
75854;SDS011;64502;59.976;30.316;2022-11-11T11:56:19;3.40;;;1.15;;
75854;SDS011;64502;59.976;30.316;2022-11-11T12:15:48;3.38;;;1.08;;
75854;SDS011;64502;59.976;30.316;2022-11-11T12:21:27;5.30;;;0.95;;
75854;SDS011;64502;59.976;30.316;2022-11-11T12:24:19;1.92;;;0.77;;
75854;SDS011;64502;59.976;30.316;2022-11-11T12:27:00;3.38;;;0.80;;
75854;SDS011;64502;59.976;30.316;2022-11-11T12:43:32;4.03;;;0.90;;
75854;SDS011;64502;59.976;30.316;2022-11-11T12:46:08;4.55;;;0.93;;
75854;SDS011;64502;59.976;30.316;2022-11-11T12:48:48;2.10;;;1.23;;
75854;SDS011;64502;59.976;30.316;2022-11-11T12:54:33;3.35;;;0.50;;
75854;SDS011;64502;59.976;30.316;2022-11-11T12:57:21;3.25;;;0.57;;
75854;SDS011;64502;59.976;30.316;2022-11-11T13:05:44;3.25;;;0.63;;
75854;SDS011;64502;59.976;30.316;2022-11-11T13:08:29;1.90;;;0.60;;
75854;SDS011;64502;59.976;30.316;2022-11-11T13:11:28;2.42;;;0.43;;
75854;SDS011;64502;59.976;30.316;2022-11-11T13:16:59;3.53;;;0.57;;
75854;SDS011;64502;59.976;30.316;2022-11-11T13:19:38;1.95;;;0.40;;
75854;SDS011;64502;59.976;30.316;2022-11-11T13:22:22;1.88;;;0.75;;
75854;SDS011;64502;59.976;30.316;2022-11-11T13:24:56;3.55;;;0.75;;
75854;SDS011;64502;59.976;30.316;2022-11-11T13:33:15;1.95;;;0.47;;
75854;SDS011;64502;59.976;30.316;2022-11-11T13:41:09;1.73;;;0.40;;
75854;SDS011;64502;59.976;30.316;2022-11-11T13:43:39;2.17;;;0.38;;
75854;SDS011;64502;59.976;30.316;2022-11-11T13:48:57;2.10;;;0.45;;
75854;SDS011;64502;59.976;30.316;2022-11-11T13:51:25;2.17;;;0.60;;
75854;SDS011;64502;59.976;30.316;2022-11-11T13:53:51;4.93;;;0.60;;
75854;SDS011;64502;59.976;30.316;2022-11-11T13:56:29;1.15;;;0.20;;
75854;SDS011;64502;59.976;30.316;2022-11-11T13:58:57;1.73;;;0.30;;
75854;SDS011;64502;59.976;30.316;2022-11-11T14:01:23;1.75;;;0.20;;
75854;SDS011;64502;59.976;30.316;2022-11-11T14:13:53;1.95;;;0.32;;
75854;SDS011;64502;59.976;30.316;2022-11-11T14:21:53;1.15;;;0.22;;
75854;SDS011;64502;59.976;30.316;2022-11-11T14:24:35;2.03;;;0.30;;
75854;SDS011;64502;59.976;30.316;2022-11-11T14:29:33;2.97;;;0.22;;
75854;SDS011;64502;59.976;30.316;2022-11-11T14:40:24;3.22;;;0.40;;
75854;SDS011;64502;59.976;30.316;2022-11-11T14:42:52;1.08;;;0.47;;
75854;SDS011;64502;59.976;30.316;2022-11-11T14:47:59;3.58;;;0.35;;
75854;SDS011;64502;59.976;30.316;2022-11-11T14:52:57;1.65;;;0.60;;
75854;SDS011;64502;59.976;30.316;2022-11-11T14:55:27;1.65;;;0.30;;
75854;SDS011;64502;59.976;30.316;2022-11-11T15:00:41;1.92;;;0.68;;
75854;SDS011;64502;59.976;30.316;2022-11-11T15:04:00;1.63;;;0.40;;
75854;SDS011;64502;59.976;30.316;2022-11-11T15:09:00;1.73;;;0.45;;
75854;SDS011;64502;59.976;30.316;2022-11-11T15:11:37;1.67;;;0.35;;
75854;SDS011;64502;59.976;30.316;2022-11-11T15:28:41;1.80;;;0.50;;
75854;SDS011;64502;59.976;30.316;2022-11-11T15:31:32;2.28;;;0.95;;
75854;SDS011;64502;59.976;30.316;2022-11-11T15:36:54;2.00;;;0.43;;
75854;SDS011;64502;59.976;30.316;2022-11-11T15:39:30;1.95;;;0.55;;
75854;SDS011;64502;59.976;30.316;2022-11-11T15:42:04;1.75;;;0.50;;
75854;SDS011;64502;59.976;30.316;2022-11-11T15:44:37;1.33;;;0.40;;
75854;SDS011;64502;59.976;30.316;2022-11-11T15:47:02;1.05;;;0.32;;
75854;SDS011;64502;59.976;30.316;2022-11-11T15:49:42;1.10;;;0.45;;
75854;SDS011;64502;59.976;30.316;2022-11-11T15:54:48;1.33;;;0.43;;
75854;SDS011;64502;59.976;30.316;2022-11-11T15:57:35;2.20;;;0.60;;
75854;SDS011;64502;59.976;30.316;2022-11-11T16:00:00;1.25;;;0.25;;
75854;SDS011;64502;59.976;30.316;2022-11-11T16:02:39;1.42;;;0.43;;
75854;SDS011;64502;59.976;30.316;2022-11-11T16:05:06;1.80;;;0.45;;
75854;SDS011;64502;59.976;30.316;2022-11-11T16:07:42;2.58;;;0.70;;
75854;SDS011;64502;59.976;30.316;2022-11-11T16:10:12;1.70;;;0.80;;
75854;SDS011;64502;59.976;30.316;2022-11-11T16:12:45;2.35;;;0.73;;
75854;SDS011;64502;59.976;30.316;2022-11-11T16:15:22;2.53;;;0.82;;
75854;SDS011;64502;59.976;30.316;2022-11-11T16:18:04;2.13;;;0.70;;
75854;SDS011;64502;59.976;30.316;2022-11-11T16:23:21;2.00;;;0.77;;
75854;SDS011;64502;59.976;30.316;2022-11-11T16:25:48;3.35;;;1.50;;
75854;SDS011;64502;59.976;30.316;2022-11-11T16:28:14;3.75;;;1.50;;
75854;SDS011;64502;59.976;30.316;2022-11-11T16:30:40;7.75;;;1.42;;
75854;SDS011;64502;59.976;30.316;2022-11-11T16:33:19;2.60;;;1.05;;
75854;SDS011;64502;59.976;30.316;2022-11-11T16:36:07;2.45;;;0.88;;
75854;SDS011;64502;59.976;30.316;2022-11-11T16:38:34;4.20;;;1.13;;
75854;SDS011;64502;59.976;30.316;2022-11-11T16:41:00;3.25;;;1.17;;
75854;SDS011;64502;59.976;30.316;2022-11-11T16:43:41;2.58;;;0.63;;
75854;SDS011;64502;59.976;30.316;2022-11-11T16:46:08;0.95;;;0.32;;
75854;SDS011;64502;59.976;30.316;2022-11-11T16:48:43;1.50;;;0.60;;
75854;SDS011;64502;59.976;30.316;2022-11-11T16:51:13;1.85;;;0.80;;
75854;SDS011;64502;59.976;30.316;2022-11-11T16:54:07;1.50;;;0.43;;
75854;SDS011;64502;59.976;30.316;2022-11-11T16:56:40;2.40;;;0.30;;
75854;SDS011;64502;59.976;30.316;2022-11-11T16:59:10;1.13;;;0.20;;
75854;SDS011;64502;59.976;30.316;2022-11-11T17:02:00;1.80;;;0.30;;
75854;SDS011;64502;59.976;30.316;2022-11-11T17:04:36;0.90;;;0.32;;
75854;SDS011;64502;59.976;30.316;2022-11-11T17:07:26;1.08;;;0.20;;
75854;SDS011;64502;59.976;30.316;2022-11-11T17:09:52;1.83;;;0.30;;
75854;SDS011;64502;59.976;30.316;2022-11-11T17:12:19;0.73;;;0.10;;
75854;SDS011;64502;59.976;30.316;2022-11-11T17:17:20;1.00;;;0.22;;
75854;SDS011;64502;59.976;30.316;2022-11-11T17:19:45;3.53;;;0.63;;
75854;SDS011;64502;59.976;30.316;2022-11-11T17:22:11;2.45;;;0.40;;
75854;SDS011;64502;59.976;30.316;2022-11-11T17:24:37;2.58;;;0.47;;
75854;SDS011;64502;59.976;30.316;2022-11-11T17:27:03;3.90;;;0.40;;
75854;SDS011;64502;59.976;30.316;2022-11-11T17:29:29;1.50;;;0.40;;
75854;SDS011;64502;59.976;30.316;2022-11-11T17:31:54;1.88;;;0.80;;
75854;SDS011;64502;59.976;30.316;2022-11-11T17:34:20;1.88;;;0.65;;